createdAt,value
2019-03-09T00:01:24.252Z,2.80
2019-03-09T00:03:53.473Z,2.87
2019-03-09T00:06:22.707Z,2.67
2019-03-09T00:08:51.834Z,2.90
2019-03-09T00:11:20.934Z,2.70
2019-03-09T00:13:50.168Z,3.27
2019-03-09T00:16:19.341Z,2.27
2019-03-09T00:18:48.924Z,2.97
2019-03-09T00:21:18.308Z,3.07
2019-03-09T00:23:59.139Z,2.43
2019-03-09T00:26:38.450Z,2.97
2019-03-09T00:29:15.741Z,2.50
2019-03-09T00:31:54.558Z,3.10
2019-03-09T00:34:23.682Z,2.43
2019-03-09T00:36:52.834Z,2.93
2019-03-09T00:39:22.325Z,2.60
2019-03-09T00:41:53.301Z,3.20
2019-03-09T00:44:22.367Z,3.50
2019-03-09T00:46:51.743Z,3.03
2019-03-09T00:49:21.289Z,3.07
2019-03-09T00:51:50.397Z,3.20
2019-03-09T00:54:19.602Z,3.20
2019-03-09T00:56:48.682Z,2.70
2019-03-09T00:59:17.920Z,2.77
2019-03-09T01:01:47.186Z,3.23
2019-03-09T01:04:16.360Z,2.90
2019-03-09T01:06:45.667Z,3.07
2019-03-09T01:09:14.798Z,3.77
2019-03-09T01:11:43.991Z,2.60
2019-03-09T01:14:13.131Z,3.40
2019-03-09T01:16:42.379Z,3.00
2019-03-09T01:19:11.607Z,3.30
2019-03-09T01:21:40.955Z,3.17
2019-03-09T01:24:10.079Z,3.20
2019-03-09T01:26:39.170Z,3.17
2019-03-09T01:29:08.279Z,2.70
2019-03-09T01:31:37.685Z,2.40
2019-03-09T01:34:06.855Z,2.90
2019-03-09T01:36:36.068Z,2.60
2019-03-09T01:39:06.441Z,2.83
2019-03-09T01:41:35.766Z,3.10
2019-03-09T01:44:04.973Z,2.80
2019-03-09T01:46:34.074Z,2.47
2019-03-09T01:49:03.300Z,2.97
2019-03-09T01:51:32.369Z,2.37
2019-03-09T01:54:01.627Z,2.63
2019-03-09T01:56:30.791Z,2.80
2019-03-09T01:59:00.283Z,3.00
2019-03-09T02:01:29.375Z,2.80
2019-03-09T02:03:58.459Z,2.70
2019-03-09T02:06:27.714Z,3.10
2019-03-09T02:08:56.834Z,2.80
2019-03-09T02:11:26.503Z,3.30
2019-03-09T02:13:55.591Z,2.93
2019-03-09T02:16:24.671Z,2.83
2019-03-09T02:18:53.843Z,3.10
2019-03-09T02:21:25.021Z,2.87
2019-03-09T02:23:54.221Z,2.30
2019-03-09T02:26:23.466Z,2.40
2019-03-09T02:28:52.601Z,2.90
2019-03-09T02:31:21.925Z,2.47
2019-03-09T02:33:51.090Z,2.60
2019-03-09T02:36:20.316Z,2.20
2019-03-09T02:39:07.275Z,2.40
2019-03-09T02:41:36.560Z,2.40
2019-03-09T02:44:05.815Z,2.80
2019-03-09T02:46:40.525Z,2.37
2019-03-09T02:49:10.554Z,2.53
2019-03-09T02:51:40.144Z,2.07
2019-03-09T02:54:09.214Z,2.43
2019-03-09T02:56:38.414Z,2.33
2019-03-09T02:59:07.741Z,2.80
2019-03-09T03:02:07.792Z,2.43
2019-03-09T03:04:36.853Z,2.10
2019-03-09T03:07:05.977Z,2.67
2019-03-09T03:09:35.056Z,2.13
2019-03-09T03:12:04.317Z,2.20
2019-03-09T03:14:33.397Z,2.10
2019-03-09T03:17:02.491Z,2.07
2019-03-09T03:19:31.977Z,2.20
2019-03-09T03:22:01.093Z,2.53
2019-03-09T03:24:30.156Z,2.23
2019-03-09T03:26:59.389Z,3.37
2019-03-09T03:29:28.686Z,1.87
2019-03-09T03:31:57.908Z,2.40
2019-03-09T03:34:27.002Z,1.90
2019-03-09T03:36:56.261Z,1.80
2019-03-09T03:39:25.406Z,2.40
2019-03-09T03:41:54.611Z,2.30
2019-03-09T03:44:23.892Z,2.30
2019-03-09T03:46:53.300Z,2.00
2019-03-09T03:49:22.449Z,2.67
2019-03-09T03:51:51.521Z,2.00
2019-03-09T03:54:20.708Z,2.30
2019-03-09T03:56:50.081Z,1.93
2019-03-09T03:59:19.311Z,2.13
2019-03-09T04:01:48.488Z,1.90
2019-03-09T04:04:17.600Z,2.40
2019-03-09T04:06:46.793Z,1.80
2019-03-09T04:09:16.254Z,1.93
2019-03-09T04:11:45.327Z,2.80
2019-03-09T04:14:14.590Z,2.17
2019-03-09T04:16:44.765Z,1.90
2019-03-09T04:19:14.051Z,2.30
2019-03-09T04:21:43.324Z,1.80
2019-03-09T04:24:12.460Z,2.50
2019-03-09T04:26:41.557Z,2.17
2019-03-09T04:29:11.100Z,1.97
2019-03-09T04:31:40.184Z,2.60
2019-03-09T04:34:09.319Z,1.90
2019-03-09T04:36:38.580Z,2.13
2019-03-09T04:39:07.948Z,1.90
2019-03-09T04:41:37.024Z,2.20
2019-03-09T04:44:06.359Z,2.00
2019-03-09T04:46:35.401Z,2.00
2019-03-09T04:49:04.685Z,2.10
2019-03-09T04:51:33.838Z,1.93
2019-03-09T04:54:03.075Z,2.13
2019-03-09T04:56:32.379Z,2.50
2019-03-09T04:59:01.595Z,2.90
2019-03-09T05:01:30.701Z,2.20
2019-03-09T05:04:44.183Z,2.30
2019-03-09T05:07:17.207Z,2.03
2019-03-09T05:09:59.304Z,3.13
2019-03-09T05:12:28.409Z,2.30
2019-03-09T05:14:57.502Z,2.47
2019-03-09T05:17:26.573Z,2.87
2019-03-09T05:19:55.873Z,2.07
2019-03-09T05:22:25.000Z,2.27
2019-03-09T05:24:54.249Z,2.03
2019-03-09T05:27:23.492Z,2.20
2019-03-09T05:29:52.864Z,2.70
2019-03-09T05:32:22.093Z,3.27
2019-03-09T05:34:51.368Z,2.50
2019-03-09T05:37:20.588Z,2.60
2019-03-09T05:39:51.518Z,2.50
2019-03-09T05:42:20.794Z,2.47
2019-03-09T05:44:49.875Z,2.63
2019-03-09T05:47:19.110Z,2.00
2019-03-09T05:49:48.285Z,2.30
2019-03-09T05:52:33.419Z,1.70
2019-03-09T05:55:09.634Z,2.07
2019-03-09T05:57:38.898Z,2.23
2019-03-09T06:00:08.643Z,1.97
2019-03-09T06:02:37.873Z,2.10
2019-03-09T06:05:31.953Z,2.27
2019-03-09T06:08:01.066Z,2.20
2019-03-09T06:10:30.170Z,2.77
2019-03-09T06:12:59.483Z,2.30
2019-03-09T06:15:28.791Z,2.67
2019-03-09T06:17:58.065Z,2.50
2019-03-09T06:20:27.370Z,2.40
2019-03-09T06:22:56.561Z,2.03
2019-03-09T06:25:26.074Z,2.20
2019-03-09T06:27:55.379Z,2.90
2019-03-09T06:30:24.717Z,2.20
2019-03-09T06:33:29.287Z,2.23
2019-03-09T06:36:48.057Z,2.33
2019-03-09T06:39:26.266Z,2.63
2019-03-09T06:42:31.063Z,2.10
2019-03-09T06:45:01.174Z,1.70
2019-03-09T06:47:30.679Z,1.83
2019-03-09T06:50:00.001Z,1.97
2019-03-09T06:52:29.165Z,1.63
2019-03-09T06:54:58.316Z,1.87
2019-03-09T06:57:27.710Z,2.00
2019-03-09T06:59:56.838Z,2.10
2019-03-09T07:02:25.972Z,2.13
2019-03-09T07:04:55.277Z,2.10
2019-03-09T07:07:24.601Z,1.80
2019-03-09T07:09:53.780Z,1.83
2019-03-09T07:12:23.133Z,1.70
2019-03-09T07:15:24.491Z,2.00
2019-03-09T07:17:56.472Z,1.60
2019-03-09T07:20:25.694Z,1.63
2019-03-09T07:22:54.979Z,1.63
2019-03-09T07:25:24.397Z,1.53
2019-03-09T07:28:01.503Z,1.60
2019-03-09T07:30:30.672Z,1.70
2019-03-09T07:32:59.951Z,1.53
2019-03-09T07:35:29.249Z,1.80
2019-03-09T07:37:58.335Z,1.53
2019-03-09T07:40:27.757Z,1.67
2019-03-09T07:42:56.839Z,1.90
2019-03-09T07:45:25.909Z,1.40
2019-03-09T07:47:55.143Z,1.57
2019-03-09T07:50:24.212Z,1.30
2019-03-09T07:52:53.515Z,1.30
2019-03-09T07:55:22.559Z,1.93
2019-03-09T07:57:51.776Z,1.60
2019-03-09T08:00:21.430Z,1.40
2019-03-09T08:02:50.702Z,1.50
2019-03-09T08:05:19.825Z,1.80
2019-03-09T08:07:49.140Z,1.20
2019-03-09T08:10:19.140Z,1.20
2019-03-09T08:12:48.262Z,1.43
2019-03-09T08:15:18.261Z,1.20
2019-03-09T08:17:47.589Z,1.30
2019-03-09T08:20:16.987Z,1.30
2019-03-09T08:22:46.140Z,1.40
2019-03-09T08:25:16.082Z,1.17
2019-03-09T08:27:45.530Z,1.00
2019-03-09T08:30:16.759Z,1.20
2019-03-09T08:32:45.917Z,1.17
2019-03-09T08:35:16.787Z,1.20
2019-03-09T08:37:46.273Z,1.20
2019-03-09T08:40:15.992Z,1.40
2019-03-09T08:42:45.101Z,1.00
2019-03-09T08:45:15.917Z,1.17
2019-03-09T08:47:52.074Z,1.23
2019-03-09T08:50:17.669Z,0.90
2019-03-09T08:52:47.196Z,1.10
2019-03-09T08:55:18.068Z,1.10
2019-03-09T08:57:47.453Z,1.03
2019-03-09T09:00:22.005Z,0.97
2019-03-09T09:02:51.114Z,1.10
2019-03-09T09:05:20.257Z,1.10
2019-03-09T09:07:49.616Z,1.20
2019-03-09T09:10:18.851Z,1.20
2019-03-09T09:12:48.002Z,1.10
2019-03-09T09:15:17.239Z,1.20
2019-03-09T09:17:46.426Z,1.00
2019-03-09T09:20:17.216Z,1.27
2019-03-09T09:22:46.364Z,1.30
2019-03-09T09:25:15.605Z,1.20
2019-03-09T09:27:44.796Z,1.50
2019-03-09T09:30:19.399Z,1.20
2019-03-09T09:32:48.503Z,1.37
2019-03-09T09:35:18.109Z,1.17
2019-03-09T09:37:47.283Z,1.10
2019-03-09T09:40:18.283Z,1.20
2019-03-09T09:42:47.444Z,1.13
2019-03-09T09:45:16.650Z,1.10
2019-03-09T09:47:45.937Z,1.17
2019-03-09T09:50:15.481Z,1.10
2019-03-09T09:52:44.589Z,1.00
2019-03-09T09:55:14.623Z,1.23
2019-03-09T09:57:44.128Z,1.10
2019-03-09T10:00:18.180Z,1.30
2019-03-09T10:02:47.304Z,1.00
2019-03-09T10:05:16.386Z,1.87
2019-03-09T10:07:45.574Z,1.40
2019-03-09T10:10:16.787Z,1.13
2019-03-09T10:12:45.928Z,1.10
2019-03-09T10:15:17.428Z,1.03
2019-03-09T10:17:47.811Z,1.00
2019-03-09T10:20:16.973Z,1.20
2019-03-09T10:22:46.195Z,1.20
2019-03-09T10:25:15.293Z,1.17
2019-03-09T10:27:44.441Z,1.10
2019-03-09T10:30:17.432Z,1.10
2019-03-09T10:32:46.641Z,1.10
2019-03-09T10:35:15.793Z,1.40
2019-03-09T10:37:44.984Z,1.10
2019-03-09T10:40:14.678Z,1.10
2019-03-09T10:42:43.850Z,1.10
2019-03-09T10:45:13.083Z,1.10
2019-03-09T10:47:43.291Z,1.03
2019-03-09T10:50:13.202Z,1.10
2019-03-09T10:52:42.419Z,1.00
2019-03-09T10:55:13.902Z,1.10
2019-03-09T10:57:43.561Z,1.10
2019-03-09T11:00:18.920Z,1.40
2019-03-09T11:02:48.054Z,1.10
2019-03-09T11:05:17.151Z,1.40
2019-03-09T11:07:46.404Z,1.10
2019-03-09T11:10:15.534Z,1.23
2019-03-09T11:12:44.766Z,1.00
2019-03-09T11:15:14.275Z,1.00
2019-03-09T11:17:43.385Z,1.00
2019-03-09T11:20:13.616Z,1.30
2019-03-09T11:22:42.858Z,1.37
2019-03-09T11:25:12.174Z,1.30
2019-03-09T11:27:41.248Z,1.20
2019-03-09T11:30:16.192Z,1.20
2019-03-09T11:32:45.315Z,1.10
2019-03-09T11:35:14.878Z,1.20
2019-03-09T11:37:44.091Z,1.47
2019-03-09T11:40:13.243Z,1.30
2019-03-09T11:42:42.382Z,1.60
2019-03-09T11:45:12.165Z,1.40
2019-03-09T11:47:41.523Z,1.30
2019-03-09T11:50:11.136Z,1.40
2019-03-09T11:52:40.240Z,1.40
2019-03-09T11:55:09.824Z,1.10
2019-03-09T11:57:40.743Z,1.70
2019-03-09T12:00:11.891Z,1.63
2019-03-09T12:02:41.137Z,1.63
2019-03-09T12:05:10.922Z,1.53
2019-03-09T12:07:40.475Z,2.13
2019-03-09T12:10:10.213Z,1.43
2019-03-09T12:12:39.600Z,1.83
2019-03-09T12:15:09.943Z,2.40
2019-03-09T12:17:39.223Z,2.20
2019-03-09T12:20:08.603Z,2.70
2019-03-09T12:22:38.012Z,2.70
2019-03-09T12:25:08.059Z,4.87
2019-03-09T12:27:37.456Z,2.37
2019-03-09T12:30:07.811Z,5.17
2019-03-09T12:32:37.397Z,6.00
2019-03-09T12:35:06.800Z,2.40
2019-03-09T12:37:36.200Z,3.73
2019-03-09T12:40:05.630Z,2.60
2019-03-09T12:42:34.757Z,1.70
2019-03-09T12:45:06.483Z,1.60
2019-03-09T12:47:35.761Z,1.90
2019-03-09T12:50:05.783Z,1.87
2019-03-09T12:52:35.080Z,1.50
2019-03-09T12:55:04.598Z,1.70
2019-03-09T12:57:33.835Z,1.73
2019-03-09T13:00:02.935Z,1.73
2019-03-09T13:02:32.360Z,1.67
2019-03-09T13:05:02.221Z,1.80
2019-03-09T13:07:31.368Z,2.10
2019-03-09T13:10:00.854Z,1.70
2019-03-09T13:12:29.999Z,1.83
2019-03-09T13:14:59.105Z,1.80
2019-03-09T13:17:28.250Z,2.13
2019-03-09T13:19:57.417Z,1.90
2019-03-09T13:22:26.924Z,1.87
2019-03-09T13:24:56.013Z,1.97
2019-03-09T13:27:25.365Z,1.63
2019-03-09T13:29:54.601Z,1.67
2019-03-09T13:32:24.210Z,1.60
2019-03-09T13:34:54.430Z,2.03
2019-03-09T13:37:24.469Z,1.80
2019-03-09T13:39:53.686Z,1.87
2019-03-09T13:42:23.385Z,1.73
2019-03-09T13:44:52.797Z,1.97
2019-03-09T13:47:21.924Z,1.97
2019-03-09T13:49:51.171Z,1.70
2019-03-09T13:52:20.854Z,1.73
2019-03-09T13:54:49.982Z,1.60
2019-03-09T13:57:19.074Z,1.70
2019-03-09T13:59:48.534Z,1.63
2019-03-09T14:02:19.201Z,1.77
2019-03-09T14:04:48.667Z,1.50
2019-03-09T14:07:18.843Z,2.27
2019-03-09T14:09:47.947Z,1.70
2019-03-09T14:12:17.249Z,1.77
2019-03-09T14:14:46.481Z,1.90
2019-03-09T14:17:15.554Z,1.93
2019-03-09T14:19:44.757Z,2.03
2019-03-09T14:22:13.872Z,1.80
2019-03-09T14:24:43.127Z,2.07
2019-03-09T14:27:12.638Z,1.60
2019-03-09T14:29:41.925Z,1.67
2019-03-09T14:32:11.135Z,1.70
2019-03-09T14:34:40.279Z,2.03
2019-03-09T14:37:09.487Z,2.10
2019-03-09T14:39:38.660Z,2.30
2019-03-09T14:42:10.055Z,1.80
2019-03-09T14:44:39.376Z,1.90
2019-03-09T14:47:08.453Z,1.90
2019-03-09T14:49:37.677Z,1.70
2019-03-09T14:52:07.611Z,1.73
2019-03-09T14:54:36.703Z,1.80
2019-03-09T14:57:05.986Z,1.97
2019-03-09T14:59:37.255Z,1.57
2019-03-09T15:02:06.596Z,1.30
2019-03-09T15:04:35.942Z,1.53
2019-03-09T15:07:08.070Z,1.50
2019-03-09T15:09:37.731Z,1.30
2019-03-09T15:12:07.173Z,1.50
2019-03-09T15:14:36.359Z,1.40
2019-03-09T15:17:06.324Z,1.97
2019-03-09T15:19:36.885Z,1.30
2019-03-09T15:22:07.657Z,1.30
2019-03-09T15:24:37.313Z,1.30
2019-03-09T15:27:06.563Z,1.70
2019-03-09T15:29:36.022Z,1.40
2019-03-09T15:32:05.173Z,1.80
2019-03-09T15:34:34.530Z,2.33
2019-03-09T15:37:04.262Z,1.80
2019-03-09T15:39:34.323Z,1.63
2019-03-09T15:42:04.477Z,1.80
2019-03-09T15:44:54.955Z,2.10
2019-03-09T15:47:28.811Z,1.90
2019-03-09T15:50:00.857Z,2.03
2019-03-09T15:52:33.767Z,3.27
2019-03-09T15:55:23.690Z,2.10
2019-03-09T15:58:33.800Z,1.97
2019-03-09T16:01:29.039Z,1.93
2019-03-09T16:04:14.000Z,1.90
2019-03-09T16:18:15.521Z,1.93
2019-03-09T16:21:46.483Z,1.93
2019-03-09T16:24:55.713Z,1.67
2019-03-09T16:27:34.005Z,2.43
2019-03-09T16:31:00.739Z,1.80
2019-03-09T16:37:26.879Z,2.23
2019-03-09T16:40:40.168Z,2.13
2019-03-09T16:46:52.106Z,1.60
2019-03-09T16:49:21.633Z,1.90
2019-03-09T16:51:51.739Z,1.73
2019-03-09T16:54:20.840Z,1.43
2019-03-09T16:56:50.239Z,1.70
2019-03-09T16:59:19.511Z,1.70
2019-03-09T17:01:48.717Z,1.57
2019-03-09T17:04:27.178Z,1.40
2019-03-09T17:07:01.653Z,1.70
2019-03-09T17:09:45.424Z,1.53
2019-03-09T17:13:07.454Z,2.40
2019-03-09T17:15:53.094Z,2.00
2019-03-09T17:18:22.549Z,2.17
2019-03-09T17:20:51.645Z,1.93
2019-03-09T17:23:20.719Z,2.90
2019-03-09T17:25:50.021Z,1.80
2019-03-09T17:28:19.185Z,2.53
2019-03-09T17:30:48.735Z,1.93
2019-03-09T17:33:17.770Z,1.90
2019-03-09T17:35:46.934Z,2.40
2019-03-09T17:38:16.139Z,1.87
2019-03-09T17:40:45.367Z,2.30
2019-03-09T17:43:14.469Z,2.53
2019-03-09T17:45:43.826Z,2.73
2019-03-09T17:48:13.036Z,2.13
2019-03-09T17:50:42.368Z,1.63
2019-03-09T17:53:13.915Z,2.23
2019-03-09T17:55:42.638Z,2.40
2019-03-09T17:58:11.779Z,2.03
2019-03-09T18:00:43.886Z,2.80
2019-03-09T18:03:13.386Z,1.80
2019-03-09T18:05:42.546Z,2.40
2019-03-09T18:08:11.646Z,2.50
2019-03-09T18:10:46.798Z,2.07
2019-03-09T18:13:16.098Z,2.33
2019-03-09T18:15:45.468Z,2.30
2019-03-09T18:18:14.569Z,1.97
2019-03-09T18:20:43.639Z,2.30
2019-03-09T18:23:12.758Z,2.40
2019-03-09T18:25:42.072Z,2.63
2019-03-09T18:28:11.303Z,2.10
2019-03-09T18:30:40.578Z,3.50
2019-03-09T18:33:09.718Z,3.00
2019-03-09T18:35:38.777Z,2.27
2019-03-09T18:38:08.338Z,2.30
2019-03-09T18:40:37.435Z,2.53
2019-03-09T18:43:06.703Z,2.87
2019-03-09T18:45:35.959Z,2.47
2019-03-09T18:48:05.109Z,2.73
2019-03-09T18:50:34.343Z,2.60
2019-03-09T18:53:05.201Z,3.00
2019-03-09T18:55:34.668Z,2.33
2019-03-09T18:58:03.772Z,2.60
2019-03-09T19:00:33.392Z,2.30
2019-03-09T19:03:02.721Z,2.67
2019-03-09T19:05:31.811Z,2.80
2019-03-09T19:08:01.007Z,2.60
